OOCL California — VRWC8 — position and weather

sailwx.info

Track history (hours):
 
Tides and Currents Weather Stations Pressure Air Temp Water Temp Dewpoint Dewpoint Depression Visibility Wind Speed Wind Dir Waves Ship Positions

OOCL California

Last reported at 2015-Jul-06 23:33 UTC. Time now 2015-Jul-07 00:14 UTC.
Position N 01°16' E 103°51'.

Length 276 m; beam 40 m; draft 14 m.

Type: Cargo ship. MMSI: 477704000.

Date/timePositionNaut miles runAvg speedWind from/ knotsBaromVisibWave heightAir tempDewpointWater temp
2015-Jul-06 23:33N 01°16' E 103°51'0 0.1
2015-Jul-06 22:30N 01°16' E 103°51'0 0.1
2015-Jul-06 21:33N 01°16' E 103°51'0 0.0
2015-Jul-06 20:30N 01°16' E 103°51'0 0.0
2015-Jul-06 19:33N 01°16' E 103°51'0 0.0
2015-Jul-06 18:33N 01°16' E 103°51'0 0.4
2015-Jul-06 17:33N 01°16' E 103°51'4 4.0
2015-Jul-06 16:33N 01°14' E 103°55'5 4.9
2015-Jul-06 15:33N 01°15' E 103°60'10 9.6
2015-Jul-06 14:33N 01°17' E 104°09'24717.0
2015-Jul-06 00:00N 04°48' E 106°18'   210 / 181011.910.8 1.528.025.326.0
2015-Jul-03 01:17N 22°17' E 114°06'9 9.5
2015-Jul-03 00:20N 22°21' E 113°57'7 8.8
2015-Jul-02 23:33N 22°26' E 113°53'1 1.0
2015-Jul-02 22:27N 22°27' E 113°54'0 0.0
2015-Jul-02 21:33N 22°27' E 113°54'0 0.0
2015-Jul-02 20:33N 22°27' E 113°54'0 0.0
2015-Jul-02 19:33N 22°27' E 113°54'0 0.0
2015-Jul-02 18:27N 22°27' E 113°54'0 0.0
2015-Jul-02 17:33N 22°27' E 113°54'0 0.0
2015-Jul-02 16:33N 22°27' E 113°54'0 0.1
2015-Jul-02 15:33N 22°27' E 113°54'10 7.2
2015-Jul-02 14:08N 22°21' E 114°02'17 9.0
2015-Jul-02 12:16N 22°09' E 114°15'811.0
2015-Jul-02 11:32N 22°08' E 114°23'13316.1
2015-Jul-02 03:16N 22°45' E 116°42'1316.1
2015-Jul-02 02:28N 22°51' E 116°54'1415.8
2015-Jul-02 01:33N 22°60' E 117°07'3716.6
2015-Jul-01 23:20N 23°20' E 117°40'3217.8
2015-Jul-01 21:33N 23°40' E 118°07'1818.1
2015-Jul-01 20:33N 23°52' E 118°22'3918.0
2015-Jul-01 18:21N 24°18' E 118°55'36116.5
2015-Jun-30 20:32N 29°24' E 122°30'1717.7
2015-Jun-30 19:33N 29°41' E 122°27'1515.2
2015-Jun-30 18:33N 29°50' E 122°13'1010.2
2015-Jun-30 17:33N 29°46' E 122°02'1 1.2
2015-Jun-30 16:27N 29°46' E 122°00'0 0.0
2015-Jun-30 15:33N 29°46' E 122°00'0 0.0
2015-Jun-30 14:15N 29°46' E 122°00'0 0.0
2015-Jun-30 12:27N 29°46' E 122°00'0 0.0
2015-Jun-30 11:09N 29°46' E 122°00'0 0.0
2015-Jun-30 09:15N 29°46' E 122°00'0 0.0
2015-Jun-30 07:27N 29°46' E 122°00'0 0.0
2015-Jun-30 05:27N 29°46' E 122°00'0 0.0
2015-Jun-29 21:27N 29°46' E 122°00'0 0.4
2015-Jun-29 20:33N 29°46' E 122°01'7 7.5
2015-Jun-29 19:33N 29°49' E 122°08'9 9.4
2015-Jun-29 18:33N 29°46' E 122°18'7 6.6
2015-Jun-29 17:33N 29°41' E 122°24'0 0.1
2015-Jun-29 13:11N 29°41' E 122°24'0 0.1
2015-Jun-29 12:33N 29°41' E 122°24'0 0.1
2015-Jun-29 11:33N 29°41' E 122°24'0 0.0
2015-Jun-29 10:33N 29°41' E 122°24'0 0.1
2015-Jun-29 09:33N 29°41' E 122°24'0 0.1
2015-Jun-29 08:33N 29°41' E 122°24'3 2.8
2015-Jun-29 07:33N 29°39' E 122°27'10 9.4
2015-Jun-29 06:33N 29°44' E 122°36'1110.7
2015-Jun-29 05:32N 29°53' E 122°43'98 6.4
2015-Jun-28 14:17N 31°18' E 121°46'6 8.7
2015-Jun-28 13:32N 31°20' E 121°39'0 0.1
2015-Jun-28 12:29N 31°20' E 121°39'0 0.0
2015-Jun-28 11:24N 31°20' E 121°39'0 0.1
2015-Jun-28 10:30N 31°20' E 121°39'0 0.0
2015-Jun-28 09:24N 31°20' E 121°39'0 0.0
2015-Jun-28 08:32N 31°20' E 121°39'0 0.0
2015-Jun-28 07:33N 31°20' E 121°39'0 0.0
2015-Jun-28 06:33N 31°20' E 121°39'0 0.0
2015-Jun-28 05:31N 31°20' E 121°39'0 0.0
2015-Jun-28 04:33N 31°20' E 121°39'0 0.1
2015-Jun-28 03:33N 31°20' E 121°39'0 0.0
2015-Jun-28 02:28N 31°20' E 121°39'0 0.0
2015-Jun-28 01:33N 31°20' E 121°39'0 0.1
2015-Jun-28 00:33N 31°20' E 121°39'0 0.1
2015-Jun-27 23:33N 31°20' E 121°39'0 0.1
2015-Jun-27 22:32N 31°20' E 121°39'0 0.1
2015-Jun-27 21:33N 31°20' E 121°39'0 0.0
2015-Jun-27 20:33N 31°20' E 121°39'0 0.0
2015-Jun-27 19:33N 31°20' E 121°39'0 0.0
2015-Jun-27 18:33N 31°20' E 121°39'0 0.0
2015-Jun-27 17:33N 31°20' E 121°39'0 0.0
2015-Jun-27 16:33N 31°20' E 121°39'0 0.0
2015-Jun-27 15:33N 31°20' E 121°39'0 0.0
2015-Jun-27 14:33N 31°20' E 121°39'0 0.0
2015-Jun-27 13:33N 31°20' E 121°39'4 4.4
2015-Jun-27 12:33N 31°19' E 121°44'1010.3
2015-Jun-27 11:33N 31°16' E 121°56'48 7.9
2015-Jun-27 05:24N 30°53' E 122°46'  
Track history (hours):
 
Tides and Currents Weather Stations Pressure Air Temp Water Temp Dewpoint Dewpoint Depression Visibility Wind Speed Wind Dir Waves Ship Positions

OOCL California

Last reported at 2015-Jul-06 23:33 UTC. Time now 2015-Jul-07 00:14 UTC.
Position N 01°16' E 103°51'.

Length 276 m; beam 40 m; draft 14 m.

Type: Cargo ship. MMSI: 477704000.

Date/timePositionNaut miles runAvg speedWind from/ knotsBaromVisibWave heightAir tempDewpointWater temp
2015-Jul-06 23:33N 01°16' E 103°51'0 0.1
2015-Jul-06 22:30N 01°16' E 103°51'0 0.1
2015-Jul-06 21:33N 01°16' E 103°51'0 0.0
2015-Jul-06 20:30N 01°16' E 103°51'0 0.0
2015-Jul-06 19:33N 01°16' E 103°51'0 0.0
2015-Jul-06 18:33N 01°16' E 103°51'0 0.4
2015-Jul-06 17:33N 01°16' E 103°51'4 4.0
2015-Jul-06 16:33N 01°14' E 103°55'5 4.9
2015-Jul-06 15:33N 01°15' E 103°60'10 9.6
2015-Jul-06 14:33N 01°17' E 104°09'24717.0
2015-Jul-06 00:00N 04°48' E 106°18'   210 / 181011.910.8 1.528.025.326.0
2015-Jul-03 01:17N 22°17' E 114°06'9 9.5
2015-Jul-03 00:20N 22°21' E 113°57'7 8.8
2015-Jul-02 23:33N 22°26' E 113°53'1 1.0
2015-Jul-02 22:27N 22°27' E 113°54'0 0.0
2015-Jul-02 21:33N 22°27' E 113°54'0 0.0
2015-Jul-02 20:33N 22°27' E 113°54'0 0.0
2015-Jul-02 19:33N 22°27' E 113°54'0 0.0
2015-Jul-02 18:27N 22°27' E 113°54'0 0.0
2015-Jul-02 17:33N 22°27' E 113°54'0 0.0
2015-Jul-02 16:33N 22°27' E 113°54'0 0.1
2015-Jul-02 15:33N 22°27' E 113°54'10 7.2
2015-Jul-02 14:08N 22°21' E 114°02'17 9.0
2015-Jul-02 12:16N 22°09' E 114°15'811.0
2015-Jul-02 11:32N 22°08' E 114°23'13316.1
2015-Jul-02 03:16N 22°45' E 116°42'1316.1
2015-Jul-02 02:28N 22°51' E 116°54'1415.8
2015-Jul-02 01:33N 22°60' E 117°07'3716.6
2015-Jul-01 23:20N 23°20' E 117°40'3217.8
2015-Jul-01 21:33N 23°40' E 118°07'1818.1
2015-Jul-01 20:33N 23°52' E 118°22'3918.0
2015-Jul-01 18:21N 24°18' E 118°55'36116.5
2015-Jun-30 20:32N 29°24' E 122°30'1717.7
2015-Jun-30 19:33N 29°41' E 122°27'1515.2
2015-Jun-30 18:33N 29°50' E 122°13'1010.2
2015-Jun-30 17:33N 29°46' E 122°02'1 1.2
2015-Jun-30 16:27N 29°46' E 122°00'0 0.0
2015-Jun-30 15:33N 29°46' E 122°00'0 0.0
2015-Jun-30 14:15N 29°46' E 122°00'0 0.0
2015-Jun-30 12:27N 29°46' E 122°00'0 0.0
2015-Jun-30 11:09N 29°46' E 122°00'0 0.0
2015-Jun-30 09:15N 29°46' E 122°00'0 0.0
2015-Jun-30 07:27N 29°46' E 122°00'0 0.0
2015-Jun-30 05:27N 29°46' E 122°00'0 0.0
2015-Jun-29 21:27N 29°46' E 122°00'0 0.4
2015-Jun-29 20:33N 29°46' E 122°01'7 7.5
2015-Jun-29 19:33N 29°49' E 122°08'9 9.4
2015-Jun-29 18:33N 29°46' E 122°18'7 6.6
2015-Jun-29 17:33N 29°41' E 122°24'0 0.1
2015-Jun-29 13:11N 29°41' E 122°24'0 0.1
2015-Jun-29 12:33N 29°41' E 122°24'0 0.1
2015-Jun-29 11:33N 29°41' E 122°24'0 0.0
2015-Jun-29 10:33N 29°41' E 122°24'0 0.1
2015-Jun-29 09:33N 29°41' E 122°24'0 0.1
2015-Jun-29 08:33N 29°41' E 122°24'3 2.8
2015-Jun-29 07:33N 29°39' E 122°27'10 9.4
2015-Jun-29 06:33N 29°44' E 122°36'1110.7
2015-Jun-29 05:32N 29°53' E 122°43'98 6.4
2015-Jun-28 14:17N 31°18' E 121°46'6 8.7
2015-Jun-28 13:32N 31°20' E 121°39'0 0.1
2015-Jun-28 12:29N 31°20' E 121°39'0 0.0
2015-Jun-28 11:24N 31°20' E 121°39'0 0.1
2015-Jun-28 10:30N 31°20' E 121°39'0 0.0
2015-Jun-28 09:24N 31°20' E 121°39'0 0.0
2015-Jun-28 08:32N 31°20' E 121°39'0 0.0
2015-Jun-28 07:33N 31°20' E 121°39'0 0.0
2015-Jun-28 06:33N 31°20' E 121°39'0 0.0
2015-Jun-28 05:31N 31°20' E 121°39'0 0.0
2015-Jun-28 04:33N 31°20' E 121°39'0 0.1
2015-Jun-28 03:33N 31°20' E 121°39'0 0.0
2015-Jun-28 02:28N 31°20' E 121°39'0 0.0
2015-Jun-28 01:33N 31°20' E 121°39'0 0.1
2015-Jun-28 00:33N 31°20' E 121°39'0 0.1
2015-Jun-27 23:33N 31°20' E 121°39'0 0.1
2015-Jun-27 22:32N 31°20' E 121°39'0 0.1
2015-Jun-27 21:33N 31°20' E 121°39'0 0.0
2015-Jun-27 20:33N 31°20' E 121°39'0 0.0
2015-Jun-27 19:33N 31°20' E 121°39'0 0.0
2015-Jun-27 18:33N 31°20' E 121°39'0 0.0
2015-Jun-27 17:33N 31°20' E 121°39'0 0.0
2015-Jun-27 16:33N 31°20' E 121°39'0 0.0
2015-Jun-27 15:33N 31°20' E 121°39'0 0.0
2015-Jun-27 14:33N 31°20' E 121°39'0 0.0
2015-Jun-27 13:33N 31°20' E 121°39'4 4.4
2015-Jun-27 12:33N 31°19' E 121°44'1010.3
2015-Jun-27 11:33N 31°16' E 121°56'48 7.9
2015-Jun-27 05:24N 30°53' E 122°46'  

Dump ship's entire track history